createdAt,value
2017-09-03T00:00:40.197Z,1.00
2017-09-03T00:03:06.402Z,1.00
2017-09-03T00:05:32.505Z,0.97
2017-09-03T00:07:58.550Z,1.00
2017-09-03T00:10:24.587Z,0.93
2017-09-03T00:12:50.677Z,0.90
2017-09-03T00:15:16.746Z,0.90
2017-09-03T00:17:42.827Z,1.37
2017-09-03T00:20:08.832Z,1.00
2017-09-03T00:22:34.968Z,1.10
2017-09-03T00:25:01.065Z,0.90
2017-09-03T00:27:27.091Z,0.90
2017-09-03T00:29:53.083Z,0.97
2017-09-03T00:32:19.124Z,0.90
2017-09-03T00:34:45.162Z,0.90
2017-09-03T00:37:11.220Z,0.90
2017-09-03T00:39:37.241Z,1.10
2017-09-03T00:42:03.491Z,1.10
2017-09-03T00:44:29.545Z,1.07
2017-09-03T00:46:55.617Z,0.90
2017-09-03T00:49:22.529Z,1.00
2017-09-03T00:51:48.569Z,0.90
2017-09-03T00:54:14.646Z,1.10
2017-09-03T00:56:40.709Z,0.90
2017-09-03T00:59:06.749Z,1.00
2017-09-03T01:01:32.812Z,0.87
2017-09-03T01:03:58.966Z,1.03
2017-09-03T01:06:25.039Z,0.93
2017-09-03T01:08:51.087Z,1.00
2017-09-03T01:11:17.125Z,0.97
2017-09-03T01:13:43.377Z,1.00
2017-09-03T01:16:09.555Z,0.87
2017-09-03T01:18:35.765Z,1.00
2017-09-03T01:21:01.899Z,1.03
2017-09-03T01:23:28.623Z,1.00
2017-09-03T01:25:54.765Z,0.90
2017-09-03T01:28:20.833Z,0.93
2017-09-03T01:30:47.106Z,0.90
2017-09-03T01:33:13.363Z,0.90
2017-09-03T01:35:39.484Z,1.00
2017-09-03T01:38:05.551Z,0.90
2017-09-03T01:40:31.575Z,1.00
2017-09-03T01:42:57.620Z,1.00
2017-09-03T01:45:23.716Z,0.90
2017-09-03T01:47:49.756Z,1.00
2017-09-03T01:50:15.796Z,1.27
2017-09-03T01:52:41.868Z,0.80
2017-09-03T01:55:08.078Z,0.90
2017-09-03T01:57:34.220Z,1.13
2017-09-03T02:00:00.243Z,1.00
2017-09-03T02:02:26.270Z,0.93
2017-09-03T02:04:52.346Z,0.97
2017-09-03T02:07:18.529Z,1.00
2017-09-03T02:09:44.556Z,1.10
2017-09-03T02:12:10.566Z,1.03
2017-09-03T02:14:36.731Z,0.83
2017-09-03T02:17:02.797Z,0.97
2017-09-03T02:19:28.983Z,0.80
2017-09-03T02:21:55.077Z,0.90
2017-09-03T02:24:21.093Z,0.80
2017-09-03T02:26:47.134Z,0.90
2017-09-03T02:29:13.193Z,0.90
2017-09-03T02:31:39.411Z,1.00
2017-09-03T02:34:05.450Z,0.90
2017-09-03T02:36:32.279Z,0.80
2017-09-03T02:38:58.319Z,0.80
2017-09-03T02:41:24.365Z,0.80
2017-09-03T02:43:50.388Z,0.80
2017-09-03T02:46:16.441Z,0.90
2017-09-03T02:48:42.495Z,1.10
2017-09-03T02:51:08.535Z,0.80
2017-09-03T02:53:34.544Z,0.90
2017-09-03T02:56:00.872Z,1.10
2017-09-03T02:58:26.963Z,1.03
2017-09-03T03:00:53.014Z,1.10
2017-09-03T03:03:19.043Z,0.80
2017-09-03T03:05:45.103Z,0.90
2017-09-03T03:08:11.188Z,0.90
2017-09-03T03:10:37.266Z,0.90
2017-09-03T03:13:03.301Z,0.73
2017-09-03T03:15:30.062Z,1.10
2017-09-03T03:17:56.100Z,1.10
2017-09-03T03:20:22.141Z,0.93
2017-09-03T03:22:48.159Z,1.07
2017-09-03T03:25:14.183Z,1.00
2017-09-03T03:27:41.219Z,0.97
2017-09-03T03:30:07.247Z,0.90
2017-09-03T03:32:33.263Z,1.10
2017-09-03T03:34:59.515Z,0.93
2017-09-03T03:37:25.548Z,1.00
2017-09-03T03:39:58.664Z,0.90
2017-09-03T03:42:24.721Z,1.00
2017-09-03T03:44:50.854Z,0.87
2017-09-03T03:47:17.033Z,0.80
2017-09-03T03:49:44.112Z,0.90
2017-09-03T03:52:10.144Z,0.90
2017-09-03T03:54:36.180Z,1.10
2017-09-03T03:57:02.214Z,0.97
2017-09-03T03:59:28.294Z,0.70
2017-09-03T04:01:54.326Z,0.90
2017-09-03T04:04:20.397Z,1.10
2017-09-03T04:06:47.083Z,0.90
2017-09-03T04:09:13.135Z,1.00
2017-09-03T04:11:39.161Z,0.80
2017-09-03T04:14:05.178Z,0.90
2017-09-03T04:16:31.371Z,1.00
2017-09-03T04:18:57.417Z,1.00
2017-09-03T04:21:23.419Z,1.00
2017-09-03T04:23:49.463Z,0.80
2017-09-03T04:26:15.669Z,0.90
2017-09-03T04:28:41.721Z,0.90
2017-09-03T04:31:07.763Z,0.90
2017-09-03T04:33:33.813Z,0.80
2017-09-03T04:35:59.902Z,0.90
2017-09-03T04:38:26.590Z,0.93
2017-09-03T04:40:52.766Z,0.90
2017-09-03T04:43:18.824Z,1.00
2017-09-03T04:45:45.023Z,1.03
2017-09-03T04:48:11.078Z,1.00
2017-09-03T04:50:37.078Z,0.83
2017-09-03T04:53:03.129Z,0.90
2017-09-03T04:55:29.262Z,0.90
2017-09-03T04:57:55.277Z,0.80
2017-09-03T05:00:21.301Z,1.10
2017-09-03T05:02:47.346Z,0.90
2017-09-03T05:05:13.399Z,0.93
2017-09-03T05:07:39.427Z,0.90
2017-09-03T05:10:05.515Z,0.80
2017-09-03T05:12:31.534Z,0.80
2017-09-03T05:14:57.604Z,0.90
2017-09-03T05:17:23.763Z,0.80
2017-09-03T05:19:49.824Z,0.90
2017-09-03T05:22:15.869Z,0.93
2017-09-03T05:24:42.201Z,0.97
2017-09-03T05:27:08.317Z,0.80
2017-09-03T05:29:34.347Z,1.03
2017-09-03T05:32:00.473Z,0.90
2017-09-03T05:34:26.497Z,0.87
2017-09-03T05:36:52.585Z,0.83
2017-09-03T05:39:19.624Z,1.00
2017-09-03T05:41:45.698Z,0.90
2017-09-03T05:44:11.734Z,0.83
2017-09-03T05:46:37.776Z,0.90
2017-09-03T05:49:03.976Z,0.90
2017-09-03T05:51:30.836Z,1.00
2017-09-03T05:53:56.938Z,0.80
2017-09-03T05:56:23.034Z,0.80
2017-09-03T05:58:49.137Z,0.80
2017-09-03T06:01:15.336Z,1.00
2017-09-03T06:03:41.443Z,0.80
2017-09-03T06:06:07.520Z,1.20
2017-09-03T06:08:33.589Z,0.87
2017-09-03T06:10:59.643Z,1.00
2017-09-03T06:13:25.709Z,0.77
2017-09-03T06:15:51.827Z,0.80
2017-09-03T06:18:17.887Z,0.80
2017-09-03T06:20:43.898Z,0.90
2017-09-03T06:23:10.343Z,1.00
2017-09-03T06:25:36.515Z,0.90
2017-09-03T06:28:02.654Z,0.93
2017-09-03T06:30:28.777Z,0.80
2017-09-03T06:32:54.871Z,0.80
2017-09-03T06:35:20.918Z,0.80
2017-09-03T06:37:46.944Z,0.87
2017-09-03T06:40:13.036Z,1.00
2017-09-03T06:42:39.094Z,0.80
2017-09-03T06:45:05.146Z,0.80
2017-09-03T06:47:31.164Z,0.70
2017-09-03T06:49:57.205Z,0.80
2017-09-03T06:52:23.285Z,1.00
2017-09-03T06:54:49.284Z,0.80
2017-09-03T06:57:15.558Z,0.80
2017-09-03T06:59:41.712Z,0.90
2017-09-03T07:02:08.167Z,0.80
2017-09-03T07:04:34.222Z,1.10
2017-09-03T07:07:00.294Z,0.90
2017-09-03T07:09:26.561Z,0.80
2017-09-03T07:11:52.639Z,0.80
2017-09-03T07:14:19.011Z,0.83
2017-09-03T07:16:45.079Z,0.87
2017-09-03T07:19:11.133Z,0.87
2017-09-03T07:21:37.376Z,1.00
2017-09-03T07:24:03.526Z,1.00
2017-09-03T07:26:29.639Z,0.90
2017-09-03T07:28:55.762Z,1.00
2017-09-03T07:31:21.849Z,1.00
2017-09-03T07:33:47.866Z,0.80
2017-09-03T07:36:13.952Z,1.00
2017-09-03T07:38:40.016Z,0.80
2017-09-03T07:41:08.828Z,0.80
2017-09-03T07:43:35.396Z,0.90
2017-09-03T07:46:01.464Z,0.87
2017-09-03T07:48:27.588Z,0.93
2017-09-03T07:50:53.667Z,0.90
2017-09-03T07:53:19.792Z,1.00
2017-09-03T07:55:45.836Z,0.93
2017-09-03T07:58:11.907Z,0.97
2017-09-03T08:00:37.991Z,0.90
2017-09-03T08:03:04.121Z,0.90
2017-09-03T08:05:30.227Z,0.83
2017-09-03T08:07:56.286Z,0.90
2017-09-03T08:10:22.862Z,0.93
2017-09-03T08:12:48.930Z,1.30
2017-09-03T08:15:15.349Z,0.80
2017-09-03T08:17:42.293Z,1.00
2017-09-03T08:20:08.370Z,0.80
2017-09-03T08:22:34.436Z,0.90
2017-09-03T08:25:00.509Z,1.17
2017-09-03T08:27:26.695Z,0.90
2017-09-03T08:29:52.746Z,0.90
2017-09-03T08:32:18.884Z,0.80
2017-09-03T08:34:45.096Z,0.93
2017-09-03T08:37:11.202Z,0.80
2017-09-03T08:39:37.240Z,1.00
2017-09-03T08:42:03.389Z,1.00
2017-09-03T08:44:29.453Z,0.83
2017-09-03T08:46:55.768Z,0.70
2017-09-03T08:49:22.007Z,0.80
2017-09-03T08:51:48.538Z,0.80
2017-09-03T08:54:14.620Z,0.93
2017-09-03T08:56:40.663Z,0.90
2017-09-03T08:59:06.718Z,0.80
2017-09-03T09:04:05.597Z,0.80
2017-09-03T09:06:31.715Z,0.80
2017-09-03T09:08:57.809Z,1.10
2017-09-03T09:11:23.920Z,0.90
2017-09-03T09:13:50.011Z,1.00
2017-09-03T09:16:16.255Z,0.90
2017-09-03T09:18:42.993Z,0.90
2017-09-03T09:21:09.068Z,0.90
2017-09-03T09:23:35.168Z,0.90
2017-09-03T09:26:01.320Z,0.90
2017-09-03T09:28:27.550Z,0.87
2017-09-03T09:30:53.652Z,0.90
2017-09-03T09:33:19.805Z,0.90
2017-09-03T09:35:45.864Z,0.90
2017-09-03T09:38:11.970Z,0.80
2017-09-03T09:40:38.101Z,0.90
2017-09-03T09:43:04.184Z,0.90
2017-09-03T09:45:30.283Z,0.97
2017-09-03T09:47:56.410Z,0.80
2017-09-03T09:50:22.513Z,0.90
2017-09-03T09:52:49.618Z,0.90
2017-09-03T09:55:15.849Z,1.00
2017-09-03T09:57:41.975Z,0.90
2017-09-03T10:00:08.020Z,1.00
2017-09-03T10:02:34.069Z,0.80
2017-09-03T10:05:00.279Z,1.00
2017-09-03T10:07:26.357Z,0.97
2017-09-03T10:09:52.424Z,0.80
2017-09-03T10:12:18.639Z,1.00
2017-09-03T10:14:44.701Z,0.87
2017-09-03T10:17:11.673Z,0.97
2017-09-03T10:19:37.785Z,1.00
2017-09-03T10:22:03.945Z,0.80
2017-09-03T10:24:30.034Z,1.00
2017-09-03T10:26:56.038Z,0.97
2017-09-03T10:29:22.391Z,0.80
2017-09-03T10:31:48.423Z,1.00
2017-09-03T10:34:14.679Z,0.90
2017-09-03T10:36:40.743Z,0.97
2017-09-03T10:39:06.857Z,0.80
2017-09-03T10:41:32.880Z,0.70
2017-09-03T10:43:58.955Z,0.90
2017-09-03T10:46:25.046Z,0.90
2017-09-03T10:48:51.118Z,0.90
2017-09-03T10:51:17.191Z,0.80
2017-09-03T10:53:43.347Z,1.00
2017-09-03T10:56:09.707Z,0.77
2017-09-03T10:58:35.774Z,0.90
2017-09-03T11:01:01.998Z,1.00
2017-09-03T11:03:28.087Z,0.80
2017-09-03T11:05:54.216Z,1.00
2017-09-03T11:08:20.281Z,1.00
2017-09-03T11:10:46.309Z,1.00
2017-09-03T11:13:12.383Z,0.80
2017-09-03T11:15:38.461Z,0.93
2017-09-03T11:18:04.539Z,0.90
2017-09-03T11:20:30.582Z,1.00
2017-09-03T11:22:57.655Z,1.00
2017-09-03T11:25:23.787Z,0.80
2017-09-03T11:27:49.912Z,0.97
2017-09-03T11:30:15.974Z,1.00
2017-09-03T11:32:42.034Z,1.00
2017-09-03T11:35:08.086Z,0.80
2017-09-03T11:37:34.174Z,0.90
2017-09-03T11:40:00.266Z,0.90
2017-09-03T11:42:26.343Z,1.00
2017-09-03T11:44:52.386Z,0.90
2017-09-03T11:47:18.444Z,1.00
2017-09-03T11:49:44.517Z,0.90
2017-09-03T11:52:10.599Z,1.10
2017-09-03T11:54:36.645Z,0.90
2017-09-03T11:57:02.687Z,0.90
2017-09-03T11:59:28.857Z,0.80
2017-09-03T12:01:54.893Z,0.90
2017-09-03T12:04:20.969Z,0.87
2017-09-03T12:06:47.029Z,0.90
2017-09-03T12:09:13.109Z,1.20
2017-09-03T12:11:39.162Z,1.10
2017-09-03T12:14:05.247Z,1.00
2017-09-03T12:16:31.482Z,0.93
2017-09-03T12:18:57.541Z,1.10
2017-09-03T12:21:23.692Z,0.97
2017-09-03T12:23:49.749Z,1.10
2017-09-03T12:26:15.789Z,1.00
2017-09-03T12:28:41.862Z,1.13
2017-09-03T12:31:07.916Z,1.00
2017-09-03T12:33:33.984Z,0.83
2017-09-03T12:36:00.040Z,1.13
2017-09-03T12:38:26.148Z,1.00
2017-09-03T12:40:52.274Z,1.00
2017-09-03T12:43:18.355Z,0.90
2017-09-03T12:45:44.861Z,1.00
2017-09-03T12:48:11.108Z,0.87
2017-09-03T12:50:37.406Z,0.80
2017-09-03T12:53:03.746Z,0.90
2017-09-03T12:55:29.801Z,1.10
2017-09-03T12:57:56.056Z,1.17
2017-09-03T13:00:22.159Z,0.90
2017-09-03T13:02:48.831Z,1.07
2017-09-03T13:05:15.832Z,1.00
2017-09-03T13:07:41.911Z,0.90
2017-09-03T13:10:08.101Z,1.20
2017-09-03T13:12:34.277Z,1.10
2017-09-03T13:15:01.014Z,1.10
2017-09-03T13:17:28.355Z,1.30
2017-09-03T13:19:54.424Z,1.20
2017-09-03T13:22:20.522Z,1.80
2017-09-03T13:24:46.778Z,1.13
2017-09-03T13:27:12.954Z,1.30
2017-09-03T13:29:39.177Z,1.47
2017-09-03T13:32:05.304Z,1.50
2017-09-03T13:34:31.413Z,1.30
2017-09-03T13:36:57.468Z,1.20
2017-09-03T13:39:23.504Z,1.50
2017-09-03T13:41:49.577Z,1.30
2017-09-03T13:44:15.773Z,1.40
2017-09-03T13:46:42.911Z,1.20
2017-09-03T13:49:09.269Z,1.30
2017-09-03T13:51:35.484Z,1.33
2017-09-03T13:54:03.902Z,1.10
2017-09-03T13:56:30.044Z,1.50
2017-09-03T13:58:56.135Z,1.97
2017-09-03T14:01:22.347Z,2.03
2017-09-03T14:03:48.481Z,1.93
2017-09-03T14:06:14.965Z,1.90
2017-09-03T14:08:42.471Z,2.23
2017-09-03T14:11:09.221Z,2.10
2017-09-03T14:13:35.282Z,2.30
2017-09-03T14:16:01.383Z,3.77
2017-09-03T14:18:27.436Z,2.93
2017-09-03T14:20:53.453Z,2.83
2017-09-03T14:23:19.640Z,2.33
2017-09-03T14:25:45.732Z,2.03
2017-09-03T14:28:11.768Z,2.70
2017-09-03T14:30:37.852Z,2.00
2017-09-03T14:33:04.048Z,2.30
2017-09-03T14:35:30.106Z,2.03
2017-09-03T14:37:56.308Z,2.00
2017-09-03T14:40:23.904Z,1.93
2017-09-03T14:42:53.550Z,2.10
2017-09-03T14:45:19.680Z,2.30
2017-09-03T14:47:45.780Z,2.30
2017-09-03T14:50:12.249Z,2.27
2017-09-03T14:52:38.324Z,2.20
2017-09-03T14:55:04.389Z,2.23
2017-09-03T14:57:30.897Z,1.87
2017-09-03T14:59:57.025Z,1.77
2017-09-03T15:02:23.121Z,1.80
2017-09-03T15:04:50.468Z,2.00
2017-09-03T15:07:16.551Z,1.90
2017-09-03T15:09:42.623Z,1.80
2017-09-03T15:12:08.743Z,1.70
2017-09-03T15:14:34.894Z,2.17
2017-09-03T15:17:01.032Z,1.77
2017-09-03T15:19:27.235Z,1.60
2017-09-03T15:21:56.181Z,1.87
2017-09-03T15:24:22.893Z,1.83
2017-09-03T15:26:51.252Z,1.93
2017-09-03T15:29:17.737Z,1.67
2017-09-03T15:31:44.142Z,1.40
2017-09-03T15:34:10.186Z,1.90
2017-09-03T15:36:36.420Z,1.43
2017-09-03T15:39:03.650Z,1.77
2017-09-03T15:41:29.763Z,1.40
2017-09-03T15:43:55.867Z,1.30
2017-09-03T15:46:21.919Z,1.30
2017-09-03T15:48:49.571Z,1.30
2017-09-03T15:51:15.617Z,1.30
2017-09-03T15:53:41.834Z,1.60
2017-09-03T15:56:08.741Z,1.53
2017-09-03T15:58:35.867Z,1.70
2017-09-03T16:01:02.290Z,1.30
2017-09-03T16:03:28.369Z,1.20
2017-09-03T16:05:54.458Z,1.70
2017-09-03T16:08:20.576Z,1.57
2017-09-03T16:10:46.584Z,1.77
2017-09-03T16:13:13.096Z,1.63
2017-09-03T16:15:41.201Z,1.33
2017-09-03T16:18:09.242Z,1.80
2017-09-03T16:20:40.030Z,1.30
2017-09-03T16:23:06.149Z,1.63
2017-09-03T16:25:32.346Z,1.70
2017-09-03T16:27:58.518Z,1.47
2017-09-03T16:30:25.209Z,1.60
2017-09-03T16:32:51.382Z,1.30
2017-09-03T16:35:17.574Z,1.50
2017-09-03T16:37:43.665Z,1.47
2017-09-03T16:40:09.725Z,1.73
2017-09-03T16:42:35.817Z,1.47
2017-09-03T16:45:01.996Z,1.67
2017-09-03T16:47:28.639Z,1.57
2017-09-03T16:49:54.890Z,1.57
2017-09-03T16:52:28.847Z,1.87
2017-09-03T16:54:54.946Z,1.50
2017-09-03T16:57:21.073Z,1.40
2017-09-03T16:59:47.433Z,1.57
2017-09-03T17:02:13.548Z,1.43
2017-09-03T17:04:39.841Z,1.53
2017-09-03T17:07:06.167Z,1.80
2017-09-03T17:09:32.397Z,1.60
2017-09-03T17:11:59.467Z,1.80
2017-09-03T17:14:25.919Z,1.50
2017-09-03T17:16:52.083Z,1.60
2017-09-03T17:19:18.373Z,1.50
2017-09-03T17:21:44.502Z,1.20
2017-09-03T17:24:10.592Z,1.27
2017-09-03T17:26:36.653Z,1.43
2017-09-03T17:29:02.765Z,1.50
2017-09-03T17:34:33.411Z,1.30
2017-09-03T17:37:11.061Z,1.40
2017-09-03T17:39:38.924Z,1.53
2017-09-03T17:42:08.785Z,1.60
2017-09-03T17:44:36.233Z,1.50
2017-09-03T17:47:09.331Z,1.33
2017-09-03T17:49:36.790Z,1.63
2017-09-03T17:52:04.235Z,1.47
2017-09-03T17:54:31.704Z,1.55
2017-09-03T17:56:59.151Z,1.40
2017-09-03T17:59:26.597Z,1.20
2017-09-03T18:01:54.159Z,1.63
2017-09-03T18:04:21.685Z,1.30
2017-09-03T18:06:49.138Z,1.47
2017-09-03T18:09:16.614Z,1.55
2017-09-03T18:11:44.090Z,1.60
2017-09-03T18:14:11.530Z,1.60
2017-09-03T18:16:39.016Z,1.50
2017-09-03T18:19:06.470Z,1.53
2017-09-03T18:21:33.920Z,1.12
2017-09-03T18:24:01.411Z,1.17
2017-09-03T18:26:28.869Z,1.27
2017-09-03T18:28:56.319Z,1.53
2017-09-03T18:31:23.853Z,1.50
2017-09-03T18:33:51.301Z,1.50
2017-09-03T18:36:19.311Z,1.35
2017-09-03T18:38:51.481Z,1.23
2017-09-03T18:41:18.923Z,1.37
2017-09-03T18:43:46.371Z,1.50
2017-09-03T18:46:19.763Z,1.33
2017-09-03T18:48:47.209Z,1.40
2017-09-03T18:51:31.361Z,1.35
2017-09-03T18:53:58.817Z,1.20
2017-09-03T18:56:28.201Z,1.20
2017-09-03T18:59:02.222Z,1.30
2017-09-03T19:01:29.662Z,1.50
2017-09-03T19:03:57.098Z,1.10
2017-09-03T19:06:24.539Z,1.10
2017-09-03T19:08:52.034Z,1.20
2017-09-03T19:11:19.495Z,1.20
2017-09-03T19:13:46.973Z,1.20
2017-09-03T19:16:14.414Z,1.20
2017-09-03T19:18:41.877Z,1.10
2017-09-03T19:21:09.384Z,1.13
2017-09-03T19:23:36.939Z,1.40
2017-09-03T19:26:04.441Z,1.20
2017-09-03T19:28:31.874Z,1.30
2017-09-03T19:30:59.383Z,1.13
2017-09-03T19:33:26.825Z,1.20
2017-09-03T19:35:54.263Z,1.17
2017-09-03T19:38:21.735Z,1.20
2017-09-03T19:40:49.194Z,1.30
2017-09-03T19:43:17.202Z,1.30
2017-09-03T19:45:44.650Z,1.10
2017-09-03T19:48:12.389Z,1.25
2017-09-03T19:50:39.862Z,1.10
2017-09-03T19:53:07.530Z,0.97
2017-09-03T19:55:34.986Z,1.33
2017-09-03T19:58:02.465Z,1.20
2017-09-03T20:00:29.922Z,0.97
2017-09-03T20:02:57.357Z,1.30
2017-09-03T20:05:25.087Z,1.40
2017-09-03T20:07:52.532Z,1.10
2017-09-03T20:10:19.993Z,0.90
2017-09-03T20:12:47.459Z,1.10
2017-09-03T20:15:14.890Z,1.20
2017-09-03T20:17:42.420Z,1.20
2017-09-03T20:20:09.876Z,1.17
2017-09-03T20:22:37.471Z,1.03
2017-09-03T20:25:05.337Z,1.30
2017-09-03T20:27:32.821Z,1.10
2017-09-03T20:30:00.393Z,1.13
2017-09-03T20:32:27.853Z,1.20
2017-09-03T20:34:55.421Z,1.13
2017-09-03T20:37:22.853Z,1.03
2017-09-03T20:39:50.307Z,1.02
2017-09-03T20:42:17.773Z,1.10
2017-09-03T20:44:45.235Z,1.20
2017-09-03T20:47:12.706Z,1.10
2017-09-03T20:49:40.165Z,1.10
2017-09-03T20:52:07.604Z,1.07
2017-09-03T20:54:35.048Z,1.20
2017-09-03T20:57:02.533Z,1.33
2017-09-03T20:59:31.044Z,0.90
2017-09-03T21:01:58.484Z,1.10
2017-09-03T21:04:25.934Z,1.20
2017-09-03T21:06:53.462Z,1.00
2017-09-03T21:09:20.960Z,1.08
2017-09-03T21:11:48.470Z,0.93
2017-09-03T21:14:15.905Z,1.17
2017-09-03T21:16:43.386Z,1.20
2017-09-03T21:19:10.814Z,1.30
2017-09-03T21:21:38.243Z,1.00
2017-09-03T21:24:05.684Z,1.10
2017-09-03T21:26:33.243Z,1.10
2017-09-03T21:29:00.668Z,1.10
2017-09-03T21:31:28.130Z,0.90
2017-09-03T21:33:55.591Z,1.00
2017-09-03T21:36:23.033Z,1.10
2017-09-03T21:38:50.474Z,1.00
2017-09-03T21:41:17.948Z,1.12
2017-09-03T21:43:45.528Z,1.00
2017-09-03T21:46:13.067Z,1.10
2017-09-03T21:48:40.529Z,1.00
2017-09-03T21:51:07.964Z,1.00
2017-09-03T21:53:35.436Z,1.40
2017-09-03T21:56:03.023Z,1.20
2017-09-03T21:58:30.458Z,1.23
2017-09-03T22:00:57.912Z,1.00
2017-09-03T22:03:25.365Z,1.00
2017-09-03T22:05:52.802Z,1.10
2017-09-03T22:08:20.468Z,1.10
2017-09-03T22:10:47.906Z,1.00
2017-09-03T22:13:15.808Z,1.00
2017-09-03T22:15:43.278Z,1.07
2017-09-03T22:18:10.824Z,1.10
2017-09-03T22:20:38.279Z,1.00
2017-09-03T22:23:05.905Z,1.07
2017-09-03T22:25:33.398Z,1.20
2017-09-03T22:28:00.832Z,1.20
2017-09-03T22:30:28.279Z,1.05
2017-09-03T22:32:56.662Z,1.27
2017-09-03T22:35:24.261Z,1.20
2017-09-03T22:37:51.802Z,1.20
2017-09-03T22:40:19.273Z,1.05
2017-09-03T22:42:46.729Z,1.10
2017-09-03T22:45:14.369Z,1.10
2017-09-03T22:47:41.840Z,1.40
2017-09-03T22:50:09.275Z,1.10
2017-09-03T22:52:36.875Z,0.90
2017-09-03T22:55:04.381Z,1.20
2017-09-03T22:57:31.839Z,1.17
2017-09-03T22:59:59.467Z,1.10
2017-09-03T23:02:26.907Z,1.20
2017-09-03T23:04:54.460Z,1.20
2017-09-03T23:07:21.894Z,1.00
2017-09-03T23:09:49.346Z,1.10
2017-09-03T23:12:16.922Z,1.40
2017-09-03T23:14:44.513Z,1.10
2017-09-03T23:17:12.031Z,1.00
2017-09-03T23:19:39.508Z,1.30
2017-09-03T23:22:06.947Z,1.17
2017-09-03T23:24:34.512Z,1.10
2017-09-03T23:27:01.959Z,0.90
2017-09-03T23:29:29.456Z,1.17
2017-09-03T23:31:57.091Z,1.20
2017-09-03T23:34:24.531Z,1.00
2017-09-03T23:36:51.982Z,1.03
2017-09-03T23:39:19.449Z,1.20
2017-09-03T23:41:46.922Z,1.23
2017-09-03T23:44:14.484Z,1.15
2017-09-03T23:46:42.031Z,1.23
2017-09-03T23:49:09.568Z,1.35
2017-09-03T23:51:37.040Z,0.90
2017-09-03T23:54:05.514Z,1.23
2017-09-03T23:56:32.958Z,1.00
2017-09-03T23:59:00.558Z,1.02
